sensor_id;sensor_type;location;lat;lon;timestamp;pressure;altitude;pressure_sealevel;temperature;humidity
11605;BME280;5858;43.076;25.626;2023-01-28T00:01:15;98787.34;;;0.75;100.00
11605;BME280;5858;43.076;25.626;2023-01-28T00:03:43;98786.78;;;0.72;100.00
11605;BME280;5858;43.076;25.626;2023-01-28T00:06:13;98843.66;;;0.93;100.00
11605;BME280;5858;43.076;25.626;2023-01-28T00:08:41;98777.47;;;0.58;100.00
11605;BME280;5858;43.076;25.626;2023-01-28T00:11:10;98850.66;;;1.04;100.00
11605;BME280;5858;43.076;25.626;2023-01-28T00:13:38;98748.38;;;0.59;100.00
11605;BME280;5858;43.076;25.626;2023-01-28T00:16:07;98840.41;;;1.11;100.00
11605;BME280;5858;43.076;25.626;2023-01-28T00:18:35;98841.91;;;1.04;100.00
11605;BME280;5858;43.076;25.626;2023-01-28T00:21:04;98846.63;;;1.00;100.00
11605;BME280;5858;43.076;25.626;2023-01-28T00:23:34;98853.56;;;1.11;100.00
11605;BME280;5858;43.076;25.626;2023-01-28T00:26:03;98781.50;;;0.72;100.00
11605;BME280;5858;43.076;25.626;2023-01-28T00:28:30;98727.22;;;0.30;100.00
11605;BME280;5858;43.076;25.626;2023-01-28T00:30:57;98866.47;;;1.14;100.00
11605;BME280;5858;43.076;25.626;2023-01-28T00:33:24;98850.13;;;1.20;100.00
11605;BME280;5858;43.076;25.626;2023-01-28T00:35:57;98697.28;;;0.22;100.00
11605;BME280;5858;43.076;25.626;2023-01-28T00:38:25;98859.09;;;1.08;100.00
11605;BME280;5858;43.076;25.626;2023-01-28T00:40:54;98764.78;;;0.42;100.00
11605;BME280;5858;43.076;25.626;2023-01-28T00:43:21;98870.47;;;1.08;100.00
11605;BME280;5858;43.076;25.626;2023-01-28T00:45:48;98781.06;;;0.57;100.00
11605;BME280;5858;43.076;25.626;2023-01-28T00:48:15;98834.75;;;0.85;100.00
11605;BME280;5858;43.076;25.626;2023-01-28T00:50:43;98799.25;;;0.70;100.00
11605;BME280;5858;43.076;25.626;2023-01-28T00:53:10;98771.91;;;0.51;100.00
11605;BME280;5858;43.076;25.626;2023-01-28T00:55:37;98798.94;;;0.63;100.00
11605;BME280;5858;43.076;25.626;2023-01-28T00:58:05;98882.81;;;1.08;100.00
11605;BME280;5858;43.076;25.626;2023-01-28T01:00:32;98831.25;;;0.65;100.00
11605;BME280;5858;43.076;25.626;2023-01-28T01:03:00;98821.81;;;0.62;100.00
11605;BME280;5858;43.076;25.626;2023-01-28T01:05:27;98806.44;;;0.68;100.00
11605;BME280;5858;43.076;25.626;2023-01-28T01:07:54;98878.34;;;0.99;100.00
11605;BME280;5858;43.076;25.626;2023-01-28T01:10:21;98871.66;;;0.94;100.00
11605;BME280;5858;43.076;25.626;2023-01-28T01:12:49;98895.19;;;0.86;100.00
11605;BME280;5858;43.076;25.626;2023-01-28T01:15:18;98885.03;;;1.03;100.00
11605;BME280;5858;43.076;25.626;2023-01-28T01:17:48;98793.59;;;0.44;100.00
11605;BME280;5858;43.076;25.626;2023-01-28T01:20:16;98786.53;;;0.44;100.00
11605;BME280;5858;43.076;25.626;2023-01-28T01:22:44;98857.09;;;0.90;100.00
11605;BME280;5858;43.076;25.626;2023-01-28T01:25:12;98807.44;;;0.46;100.00
11605;BME280;5858;43.076;25.626;2023-01-28T01:27:39;98870.31;;;1.00;100.00
11605;BME280;5858;43.076;25.626;2023-01-28T01:30:08;98878.34;;;0.99;100.00
11605;BME280;5858;43.076;25.626;2023-01-28T01:32:37;98883.44;;;0.90;100.00
11605;BME280;5858;43.076;25.626;2023-01-28T01:35:06;98851.44;;;0.55;100.00
11605;BME280;5858;43.076;25.626;2023-01-28T01:37:33;98849.13;;;0.71;100.00
11605;BME280;5858;43.076;25.626;2023-01-28T01:40:01;98861.91;;;0.76;100.00
11605;BME280;5858;43.076;25.626;2023-01-28T01:42:31;98758.44;;;0.14;100.00
11605;BME280;5858;43.076;25.626;2023-01-28T01:45:00;98810.72;;;0.59;100.00
11605;BME280;5858;43.076;25.626;2023-01-28T01:47:32;98820.94;;;0.52;100.00
11605;BME280;5858;43.076;25.626;2023-01-28T01:50:06;98882.38;;;1.03;100.00
11605;BME280;5858;43.076;25.626;2023-01-28T01:52:37;98891.91;;;0.94;100.00
11605;BME280;5858;43.076;25.626;2023-01-28T01:55:09;98886.63;;;0.94;100.00
11605;BME280;5858;43.076;25.626;2023-01-28T01:57:37;98827.34;;;0.59;100.00
11605;BME280;5858;43.076;25.626;2023-01-28T02:00:06;98886.75;;;0.92;100.00
11605;BME280;5858;43.076;25.626;2023-01-28T02:02:37;98888.25;;;0.85;100.00
11605;BME280;5858;43.076;25.626;2023-01-28T02:05:08;98856.06;;;0.72;100.00
11605;BME280;5858;43.076;25.626;2023-01-28T02:07:36;98832.78;;;0.68;100.00
11605;BME280;5858;43.076;25.626;2023-01-28T02:10:05;98858.44;;;0.75;100.00
11605;BME280;5858;43.076;25.626;2023-01-28T02:12:38;98820.41;;;0.58;100.00
11605;BME280;5858;43.076;25.626;2023-01-28T02:15:09;98773.88;;;0.28;100.00
11605;BME280;5858;43.076;25.626;2023-01-28T02:17:37;98852.91;;;0.78;100.00
11605;BME280;5858;43.076;25.626;2023-01-28T02:20:09;98849.97;;;0.72;100.00
11605;BME280;5858;43.076;25.626;2023-01-28T02:26:07;98876.03;;;0.75;100.00
11605;BME280;5858;43.076;25.626;2023-01-28T02:28:40;98852.97;;;0.57;100.00
11605;BME280;5858;43.076;25.626;2023-01-28T02:31:17;98725.34;;;-0.40;100.00
11605;BME280;5858;43.076;25.626;2023-01-28T02:33:51;98875.69;;;0.58;100.00
11605;BME280;5858;43.076;25.626;2023-01-28T02:36:27;98911.53;;;0.80;100.00
11605;BME280;5858;43.076;25.626;2023-01-28T02:39:08;98816.75;;;0.19;100.00
11605;BME280;5858;43.076;25.626;2023-01-28T02:41:41;98923.84;;;1.01;100.00
11605;BME280;5858;43.076;25.626;2023-01-28T02:44:13;98846.03;;;0.56;100.00
11605;BME280;5858;43.076;25.626;2023-01-28T02:46:40;98919.66;;;0.98;100.00
11605;BME280;5858;43.076;25.626;2023-01-28T02:49:38;98914.13;;;1.01;100.00
11605;BME280;5858;43.076;25.626;2023-01-28T02:52:17;98919.97;;;1.05;100.00
11605;BME280;5858;43.076;25.626;2023-01-28T02:55:11;98921.34;;;0.99;100.00
11605;BME280;5858;43.076;25.626;2023-01-28T02:57:46;98797.75;;;-0.05;100.00
11605;BME280;5858;43.076;25.626;2023-01-28T03:00:24;98904.47;;;0.81;100.00
11605;BME280;5858;43.076;25.626;2023-01-28T03:02:58;98934.97;;;0.83;100.00
11605;BME280;5858;43.076;25.626;2023-01-28T03:05:31;98891.66;;;0.46;100.00
11605;BME280;5858;43.076;25.626;2023-01-28T03:08:03;98924.41;;;0.53;100.00
11605;BME280;5858;43.076;25.626;2023-01-28T03:10:52;98820.66;;;-0.17;100.00
11605;BME280;5858;43.076;25.626;2023-01-28T03:13:38;98936.16;;;0.49;100.00
11605;BME280;5858;43.076;25.626;2023-01-28T03:16:25;98859.66;;;-0.01;100.00
11605;BME280;5858;43.076;25.626;2023-01-28T03:19:10;98896.88;;;0.15;100.00
11605;BME280;5858;43.076;25.626;2023-01-28T03:21:57;98881.63;;;0.09;100.00
11605;BME280;5858;43.076;25.626;2023-01-28T03:24:43;98833.34;;;-0.22;100.00
11605;BME280;5858;43.076;25.626;2023-01-28T03:27:32;98852.84;;;-0.24;100.00
11605;BME280;5858;43.076;25.626;2023-01-28T03:30:22;98906.38;;;0.07;100.00
11605;BME280;5858;43.076;25.626;2023-01-28T03:33:13;98942.41;;;0.48;100.00
11605;BME280;5858;43.076;25.626;2023-01-28T03:35:58;98845.78;;;-0.03;100.00
11605;BME280;5858;43.076;25.626;2023-01-28T03:38:43;98953.50;;;0.51;100.00
11605;BME280;5858;43.076;25.626;2023-01-28T03:41:19;98824.50;;;-0.21;100.00
11605;BME280;5858;43.076;25.626;2023-01-28T03:43:47;98951.38;;;0.66;100.00
11605;BME280;5858;43.076;25.626;2023-01-28T03:46:14;98946.53;;;0.71;100.00
11605;BME280;5858;43.076;25.626;2023-01-28T03:48:42;98911.38;;;0.30;100.00
11605;BME280;5858;43.076;25.626;2023-01-28T03:51:09;98879.34;;;0.25;100.00
11605;BME280;5858;43.076;25.626;2023-01-28T03:53:36;98952.19;;;0.67;100.00
11605;BME280;5858;43.076;25.626;2023-01-28T03:56:05;98961.31;;;0.62;100.00
11605;BME280;5858;43.076;25.626;2023-01-28T03:58:33;98894.94;;;0.38;100.00
11605;BME280;5858;43.076;25.626;2023-01-28T04:01:17;98868.41;;;0.20;100.00
11605;BME280;5858;43.076;25.626;2023-01-28T04:03:47;98894.44;;;0.23;100.00
11605;BME280;5858;43.076;25.626;2023-01-28T04:06:15;98838.75;;;-0.03;100.00
11605;BME280;5858;43.076;25.626;2023-01-28T04:08:46;98915.34;;;0.46;100.00
11605;BME280;5858;43.076;25.626;2023-01-28T04:11:18;98855.31;;;0.09;100.00
11605;BME280;5858;43.076;25.626;2023-01-28T04:13:54;98970.50;;;0.68;100.00
11605;BME280;5858;43.076;25.626;2023-01-28T04:19:07;98909.06;;;0.37;100.00
11605;BME280;5858;43.076;25.626;2023-01-28T04:21:35;98867.25;;;0.13;100.00
11605;BME280;5858;43.076;25.626;2023-01-28T04:24:08;98927.41;;;0.27;100.00
11605;BME280;5858;43.076;25.626;2023-01-28T04:26:38;98963.97;;;0.62;100.00
11605;BME280;5858;43.076;25.626;2023-01-28T04:29:05;98871.63;;;0.03;100.00
11605;BME280;5858;43.076;25.626;2023-01-28T04:31:38;98940.53;;;0.59;100.00
11605;BME280;5858;43.076;25.626;2023-01-28T04:34:10;99008.19;;;0.89;100.00
11605;BME280;5858;43.076;25.626;2023-01-28T04:36:39;98793.03;;;-0.32;100.00
11605;BME280;5858;43.076;25.626;2023-01-28T04:39:14;98934.53;;;0.37;100.00
11605;BME280;5858;43.076;25.626;2023-01-28T04:42:07;98855.28;;;-0.12;100.00
11605;BME280;5858;43.076;25.626;2023-01-28T04:44:46;98859.53;;;-0.20;100.00
11605;BME280;5858;43.076;25.626;2023-01-28T04:47:29;98993.72;;;0.84;100.00
11605;BME280;5858;43.076;25.626;2023-01-28T04:50:05;98926.78;;;0.35;100.00
11605;BME280;5858;43.076;25.626;2023-01-28T04:52:35;99017.88;;;0.89;100.00
11605;BME280;5858;43.076;25.626;2023-01-28T04:55:04;98910.81;;;0.06;100.00
11605;BME280;5858;43.076;25.626;2023-01-28T04:57:35;99015.31;;;0.78;100.00
11605;BME280;5858;43.076;25.626;2023-01-28T05:00:05;99021.94;;;0.72;100.00
11605;BME280;5858;43.076;25.626;2023-01-28T05:02:32;99002.88;;;0.59;100.00
11605;BME280;5858;43.076;25.626;2023-01-28T05:05:00;98987.28;;;0.35;100.00
11605;BME280;5858;43.076;25.626;2023-01-28T05:07:32;99066.69;;;0.72;100.00
11605;BME280;5858;43.076;25.626;2023-01-28T05:10:00;99018.59;;;0.49;100.00
11605;BME280;5858;43.076;25.626;2023-01-28T05:12:27;98992.44;;;0.37;100.00
11605;BME280;5858;43.076;25.626;2023-01-28T05:14:54;99039.22;;;0.65;100.00
11605;BME280;5858;43.076;25.626;2023-01-28T05:17:22;99038.44;;;0.53;100.00
11605;BME280;5858;43.076;25.626;2023-01-28T05:19:50;99019.75;;;0.56;100.00
11605;BME280;5858;43.076;25.626;2023-01-28T05:22:17;99042.63;;;0.77;100.00
11605;BME280;5858;43.076;25.626;2023-01-28T05:24:47;99008.19;;;0.48;100.00
11605;BME280;5858;43.076;25.626;2023-01-28T05:27:14;99021.16;;;0.60;100.00
11605;BME280;5858;43.076;25.626;2023-01-28T05:29:41;99046.41;;;0.63;100.00
11605;BME280;5858;43.076;25.626;2023-01-28T05:32:08;98951.47;;;0.02;100.00
11605;BME280;5858;43.076;25.626;2023-01-28T05:34:41;99025.72;;;0.26;100.00
11605;BME280;5858;43.076;25.626;2023-01-28T05:37:08;99065.78;;;0.62;100.00
11605;BME280;5858;43.076;25.626;2023-01-28T05:39:36;99002.38;;;0.33;100.00
11605;BME280;5858;43.076;25.626;2023-01-28T05:42:07;99068.16;;;0.65;100.00
11605;BME280;5858;43.076;25.626;2023-01-28T05:44:35;99005.50;;;0.27;100.00
11605;BME280;5858;43.076;25.626;2023-01-28T05:47:02;99053.38;;;0.53;100.00
11605;BME280;5858;43.076;25.626;2023-01-28T05:49:32;99017.78;;;0.06;100.00
11605;BME280;5858;43.076;25.626;2023-01-28T05:52:02;99033.00;;;0.34;100.00
11605;BME280;5858;43.076;25.626;2023-01-28T05:54:29;99083.19;;;0.74;100.00
11605;BME280;5858;43.076;25.626;2023-01-28T05:56:56;99080.13;;;0.69;100.00
11605;BME280;5858;43.076;25.626;2023-01-28T05:59:24;98970.03;;;0.21;100.00
11605;BME280;5858;43.076;25.626;2023-01-28T06:01:52;99055.47;;;0.70;100.00
11605;BME280;5858;43.076;25.626;2023-01-28T06:04:19;98952.31;;;-0.09;100.00
11605;BME280;5858;43.076;25.626;2023-01-28T06:06:46;99094.69;;;0.73;100.00
11605;BME280;5858;43.076;25.626;2023-01-28T06:09:13;99014.66;;;0.44;100.00
11605;BME280;5858;43.076;25.626;2023-01-28T06:12:11;99078.06;;;0.73;100.00
11605;BME280;5858;43.076;25.626;2023-01-28T06:15:03;98945.94;;;-0.27;100.00
11605;BME280;5858;43.076;25.626;2023-01-28T06:17:45;99110.81;;;0.80;100.00
11605;BME280;5858;43.076;25.626;2023-01-28T06:20:16;99060.66;;;0.60;100.00
11605;BME280;5858;43.076;25.626;2023-01-28T06:22:43;98973.25;;;-0.18;100.00
11605;BME280;5858;43.076;25.626;2023-01-28T06:25:19;99113.53;;;0.89;100.00
11605;BME280;5858;43.076;25.626;2023-01-28T06:27:47;99119.19;;;0.85;100.00
11605;BME280;5858;43.076;25.626;2023-01-28T06:30:16;98984.72;;;-0.08;100.00
11605;BME280;5858;43.076;25.626;2023-01-28T06:32:43;99063.34;;;0.38;100.00
11605;BME280;5858;43.076;25.626;2023-01-28T06:35:10;99099.06;;;0.63;100.00
11605;BME280;5858;43.076;25.626;2023-01-28T06:37:37;99129.88;;;0.72;100.00
11605;BME280;5858;43.076;25.626;2023-01-28T06:40:07;99136.13;;;0.71;100.00
11605;BME280;5858;43.076;25.626;2023-01-28T06:42:34;99058.13;;;0.27;100.00
11605;BME280;5858;43.076;25.626;2023-01-28T06:45:01;99087.03;;;0.49;100.00
11605;BME280;5858;43.076;25.626;2023-01-28T06:47:31;99175.94;;;0.78;100.00
11605;BME280;5858;43.076;25.626;2023-01-28T06:49:58;99085.66;;;0.23;100.00
11605;BME280;5858;43.076;25.626;2023-01-28T06:52:26;99088.22;;;0.45;100.00
11605;BME280;5858;43.076;25.626;2023-01-28T06:54:53;99146.91;;;0.68;100.00
11605;BME280;5858;43.076;25.626;2023-01-28T06:57:20;99158.59;;;0.75;100.00
11605;BME280;5858;43.076;25.626;2023-01-28T06:59:47;99163.34;;;0.81;100.00
11605;BME280;5858;43.076;25.626;2023-01-28T07:02:15;99188.72;;;0.82;100.00
11605;BME280;5858;43.076;25.626;2023-01-28T07:04:43;99088.91;;;0.15;100.00
11605;BME280;5858;43.076;25.626;2023-01-28T07:07:11;99184.81;;;0.77;100.00
11605;BME280;5858;43.076;25.626;2023-01-28T07:09:38;99169.16;;;0.64;100.00
11605;BME280;5858;43.076;25.626;2023-01-28T07:12:05;99168.84;;;0.57;100.00
11605;BME280;5858;43.076;25.626;2023-01-28T07:14:32;99016.06;;;-0.27;100.00
11605;BME280;5858;43.076;25.626;2023-01-28T07:16:59;99168.34;;;0.63;100.00
11605;BME280;5858;43.076;25.626;2023-01-28T07:19:29;99170.72;;;0.67;100.00
11605;BME280;5858;43.076;25.626;2023-01-28T07:21:57;99085.94;;;0.09;100.00
11605;BME280;5858;43.076;25.626;2023-01-28T07:24:29;99163.75;;;0.77;100.00
11605;BME280;5858;43.076;25.626;2023-01-28T07:26:57;99177.19;;;0.94;100.00
11605;BME280;5858;43.076;25.626;2023-01-28T07:29:24;99172.88;;;0.93;100.00
11605;BME280;5858;43.076;25.626;2023-01-28T07:31:51;99174.56;;;0.94;100.00
11605;BME280;5858;43.076;25.626;2023-01-28T07:34:18;99034.75;;;0.13;100.00
11605;BME280;5858;43.076;25.626;2023-01-28T07:36:45;99153.28;;;0.86;100.00
11605;BME280;5858;43.076;25.626;2023-01-28T07:39:14;99112.63;;;0.79;100.00
11605;BME280;5858;43.076;25.626;2023-01-28T07:41:41;99182.84;;;1.43;100.00
11605;BME280;5858;43.076;25.626;2023-01-28T07:44:08;99155.00;;;1.29;100.00
11605;BME280;5858;43.076;25.626;2023-01-28T07:46:35;99071.91;;;0.83;100.00
11605;BME280;5858;43.076;25.626;2023-01-28T07:49:02;99183.41;;;1.67;100.00
11605;BME280;5858;43.076;25.626;2023-01-28T07:51:29;99137.38;;;1.30;100.00
11605;BME280;5858;43.076;25.626;2023-01-28T07:53:56;99187.78;;;1.78;100.00
11605;BME280;5858;43.076;25.626;2023-01-28T07:56:25;99167.78;;;1.75;100.00
11605;BME280;5858;43.076;25.626;2023-01-28T07:58:53;99140.03;;;1.50;98.71
11605;BME280;5858;43.076;25.626;2023-01-28T08:01:20;99198.38;;;1.87;98.53
11605;BME280;5858;43.076;25.626;2023-01-28T08:03:48;99130.63;;;1.57;98.70
11605;BME280;5858;43.076;25.626;2023-01-28T08:06:15;99163.72;;;1.71;99.32
11605;BME280;5858;43.076;25.626;2023-01-28T08:08:43;99152.22;;;1.72;98.42
11605;BME280;5858;43.076;25.626;2023-01-28T08:11:10;99199.72;;;2.03;97.90
11605;BME280;5858;43.076;25.626;2023-01-28T08:13:39;99167.03;;;1.94;97.88
11605;BME280;5858;43.076;25.626;2023-01-28T08:16:07;99185.31;;;1.86;96.57
11605;BME280;5858;43.076;25.626;2023-01-28T08:18:34;99150.28;;;1.74;97.38
11605;BME280;5858;43.076;25.626;2023-01-28T08:21:03;99190.59;;;1.86;97.80
11605;BME280;5858;43.076;25.626;2023-01-28T08:23:31;99149.09;;;1.57;96.62
11605;BME280;5858;43.076;25.626;2023-01-28T08:25:59;99200.69;;;2.02;96.82
11605;BME280;5858;43.076;25.626;2023-01-28T08:28:26;99187.06;;;1.97;96.42
11605;BME280;5858;43.076;25.626;2023-01-28T08:31:20;99200.97;;;2.08;95.39
11605;BME280;5858;43.076;25.626;2023-01-28T08:33:49;99182.81;;;1.84;94.96
11605;BME280;5858;43.076;25.626;2023-01-28T08:36:21;99166.94;;;1.75;94.93
11605;BME280;5858;43.076;25.626;2023-01-28T08:38:51;99224.69;;;1.99;93.59
11605;BME280;5858;43.076;25.626;2023-01-28T08:41:19;99081.59;;;1.24;95.70
11605;BME280;5858;43.076;25.626;2023-01-28T08:43:54;99093.59;;;1.38;95.43
11605;BME280;5858;43.076;25.626;2023-01-28T08:46:34;99200.41;;;2.05;94.96
11605;BME280;5858;43.076;25.626;2023-01-28T08:49:01;99158.59;;;2.00;95.75
11605;BME280;5858;43.076;25.626;2023-01-28T08:51:29;99165.16;;;2.06;96.87
11605;BME280;5858;43.076;25.626;2023-01-28T08:53:56;99144.13;;;1.95;96.80
11605;BME280;5858;43.076;25.626;2023-01-28T08:56:23;99185.78;;;2.31;96.99
11605;BME280;5858;43.076;25.626;2023-01-28T08:58:50;99177.59;;;2.34;96.40
11605;BME280;5858;43.076;25.626;2023-01-28T09:01:17;99183.13;;;2.31;96.07
11605;BME280;5858;43.076;25.626;2023-01-28T09:03:45;99163.34;;;2.06;96.29
11605;BME280;5858;43.076;25.626;2023-01-28T09:06:13;99008.03;;;1.12;95.37
11605;BME280;5858;43.076;25.626;2023-01-28T09:08:41;99154.03;;;2.02;96.31
11605;BME280;5858;43.076;25.626;2023-01-28T09:11:08;99147.06;;;2.01;96.00
11605;BME280;5858;43.076;25.626;2023-01-28T09:13:35;99146.28;;;2.10;96.05
11605;BME280;5858;43.076;25.626;2023-01-28T09:16:04;99118.38;;;1.87;95.93
11605;BME280;5858;43.076;25.626;2023-01-28T09:18:31;99072.56;;;1.78;96.36
11605;BME280;5858;43.076;25.626;2023-01-28T09:21:03;99145.28;;;2.02;95.67
11605;BME280;5858;43.076;25.626;2023-01-28T09:23:33;99113.47;;;2.03;95.65
11605;BME280;5858;43.076;25.626;2023-01-28T09:26:02;99124.19;;;2.11;95.74
11605;BME280;5858;43.076;25.626;2023-01-28T09:28:30;99089.56;;;1.65;96.26
11605;BME280;5858;43.076;25.626;2023-01-28T09:31:02;99218.22;;;2.43;96.63
11605;BME280;5858;43.076;25.626;2023-01-28T09:33:32;99213.94;;;2.51;96.39
11605;BME280;5858;43.076;25.626;2023-01-28T09:36:07;99189.88;;;2.45;96.74
11605;BME280;5858;43.076;25.626;2023-01-28T09:38:35;99096.59;;;1.85;96.98
11605;BME280;5858;43.076;25.626;2023-01-28T09:41:16;99193.00;;;2.29;97.24
11605;BME280;5858;43.076;25.626;2023-01-28T09:43:55;99196.34;;;2.31;97.83
11605;BME280;5858;43.076;25.626;2023-01-28T09:46:30;99190.78;;;2.34;97.58
11605;BME280;5858;43.076;25.626;2023-01-28T09:48:59;99191.31;;;2.28;97.50
11605;BME280;5858;43.076;25.626;2023-01-28T09:51:35;99199.53;;;2.35;97.65
11605;BME280;5858;43.076;25.626;2023-01-28T09:54:13;99177.56;;;2.25;97.57
11605;BME280;5858;43.076;25.626;2023-01-28T09:56:44;99198.97;;;2.31;96.03
11605;BME280;5858;43.076;25.626;2023-01-28T09:59:17;99194.81;;;2.29;95.35
11605;BME280;5858;43.076;25.626;2023-01-28T10:01:49;99201.47;;;2.33;95.21
11605;BME280;5858;43.076;25.626;2023-01-28T10:04:29;99164.47;;;2.13;95.49
11605;BME280;5858;43.076;25.626;2023-01-28T10:07:14;99130.38;;;1.91;95.52
11605;BME280;5858;43.076;25.626;2023-01-28T10:09:48;99189.19;;;2.12;95.15
11605;BME280;5858;43.076;25.626;2023-01-28T10:12:38;99214.53;;;2.25;96.40
11605;BME280;5858;43.076;25.626;2023-01-28T10:15:31;99212.53;;;2.17;97.35
11605;BME280;5858;43.076;25.626;2023-01-28T10:18:08;99201.25;;;2.05;96.58
11605;BME280;5858;43.076;25.626;2023-01-28T10:20:46;99189.03;;;2.04;98.20
11605;BME280;5858;43.076;25.626;2023-01-28T10:23:21;99124.66;;;1.55;97.10
11605;BME280;5858;43.076;25.626;2023-01-28T10:25:50;99196.34;;;1.91;96.86
11605;BME280;5858;43.076;25.626;2023-01-28T10:28:19;99170.16;;;1.78;97.31
11605;BME280;5858;43.076;25.626;2023-01-28T10:30:48;99087.06;;;1.33;96.36
11605;BME280;5858;43.076;25.626;2023-01-28T10:33:19;99178.19;;;1.77;96.68
11605;BME280;5858;43.076;25.626;2023-01-28T10:35:48;99212.53;;;2.17;96.47
11605;BME280;5858;43.076;25.626;2023-01-28T10:38:21;99209.66;;;2.30;95.13
11605;BME280;5858;43.076;25.626;2023-01-28T10:40:49;99070.00;;;1.37;95.69
11605;BME280;5858;43.076;25.626;2023-01-28T10:43:19;99177.38;;;2.07;95.68
11605;BME280;5858;43.076;25.626;2023-01-28T10:45:53;99153.78;;;1.84;94.75
11605;BME280;5858;43.076;25.626;2023-01-28T10:48:23;99211.22;;;2.32;95.54
11605;BME280;5858;43.076;25.626;2023-01-28T10:50:51;99167.75;;;1.96;95.73
11605;BME280;5858;43.076;25.626;2023-01-28T10:53:35;99121.00;;;1.77;96.56
11605;BME280;5858;43.076;25.626;2023-01-28T10:56:03;99175.31;;;2.20;97.12
11605;BME280;5858;43.076;25.626;2023-01-28T10:58:33;99185.66;;;2.33;97.37
11605;BME280;5858;43.076;25.626;2023-01-28T11:01:04;99215.19;;;2.57;97.67
11605;BME280;5858;43.076;25.626;2023-01-28T11:03:32;99178.28;;;2.36;97.33
11605;BME280;5858;43.076;25.626;2023-01-28T11:06:02;99222.44;;;2.65;96.80
11605;BME280;5858;43.076;25.626;2023-01-28T11:08:30;99125.31;;;2.18;96.96
11605;BME280;5858;43.076;25.626;2023-01-28T11:10:59;99140.50;;;2.36;96.59
11605;BME280;5858;43.076;25.626;2023-01-28T11:13:27;99134.28;;;2.37;96.74
11605;BME280;5858;43.076;25.626;2023-01-28T11:15:57;99095.28;;;2.00;95.74
11605;BME280;5858;43.076;25.626;2023-01-28T11:18:29;99193.38;;;2.65;96.87
11605;BME280;5858;43.076;25.626;2023-01-28T11:21:06;99017.03;;;1.40;96.82
11605;BME280;5858;43.076;25.626;2023-01-28T11:23:48;99107.50;;;2.01;96.95
11605;BME280;5858;43.076;25.626;2023-01-28T11:26:19;99197.75;;;2.35;96.81
11605;BME280;5858;43.076;25.626;2023-01-28T11:28:47;99191.13;;;2.50;97.53
11605;BME280;5858;43.076;25.626;2023-01-28T11:31:16;99192.94;;;2.50;98.46
11605;BME280;5858;43.076;25.626;2023-01-28T11:33:46;99138.06;;;2.04;97.54
11605;BME280;5858;43.076;25.626;2023-01-28T11:36:16;99149.03;;;2.09;97.27
11605;BME280;5858;43.076;25.626;2023-01-28T11:38:50;99154.31;;;2.09;98.18
11605;BME280;5858;43.076;25.626;2023-01-28T11:41:26;99071.28;;;1.73;98.46
11605;BME280;5858;43.076;25.626;2023-01-28T11:43:54;99147.84;;;2.32;98.38
11605;BME280;5858;43.076;25.626;2023-01-28T11:46:39;99191.81;;;2.43;97.34
11605;BME280;5858;43.076;25.626;2023-01-28T11:49:20;99201.69;;;2.50;97.62
11605;BME280;5858;43.076;25.626;2023-01-28T11:51:55;99205.75;;;2.64;97.90
11605;BME280;5858;43.076;25.626;2023-01-28T11:54:38;99197.13;;;2.62;98.02
11605;BME280;5858;43.076;25.626;2023-01-28T11:57:19;99117.94;;;2.12;98.63
11605;BME280;5858;43.076;25.626;2023-01-28T12:00:03;99149.38;;;2.35;98.20
11605;BME280;5858;43.076;25.626;2023-01-28T12:02:49;99204.81;;;2.75;97.67
11605;BME280;5858;43.076;25.626;2023-01-28T12:05:43;99206.88;;;2.62;97.46
11605;BME280;5858;43.076;25.626;2023-01-28T12:08:19;99202.84;;;2.67;96.30
11605;BME280;5858;43.076;25.626;2023-01-28T12:10:58;99165.34;;;2.33;97.49
11605;BME280;5858;43.076;25.626;2023-01-28T12:13:41;99153.88;;;2.04;97.34
11605;BME280;5858;43.076;25.626;2023-01-28T12:16:36;99211.41;;;2.40;97.78
11605;BME280;5858;43.076;25.626;2023-01-28T12:19:20;99196.06;;;2.34;98.41
11605;BME280;5858;43.076;25.626;2023-01-28T12:22:15;99108.81;;;1.86;98.43
11605;BME280;5858;43.076;25.626;2023-01-28T12:24:57;99214.66;;;2.63;98.09
11605;BME280;5858;43.076;25.626;2023-01-28T12:27:38;99165.41;;;2.43;98.56
11605;BME280;5858;43.076;25.626;2023-01-28T12:30:21;99166.84;;;2.66;97.43
11605;BME280;5858;43.076;25.626;2023-01-28T12:33:06;99153.22;;;2.71;96.25
11605;BME280;5858;43.076;25.626;2023-01-28T12:35:46;99185.09;;;2.89;95.66
11605;BME280;5858;43.076;25.626;2023-01-28T12:38:27;99182.72;;;2.95;95.10
11605;BME280;5858;43.076;25.626;2023-01-28T12:41:02;99204.16;;;3.11;95.64
11605;BME280;5858;43.076;25.626;2023-01-28T12:43:50;99214.03;;;3.19;96.28
11605;BME280;5858;43.076;25.626;2023-01-28T12:46:34;99215.44;;;3.13;96.91
11605;BME280;5858;43.076;25.626;2023-01-28T12:49:05;99135.81;;;2.59;96.81
11605;BME280;5858;43.076;25.626;2023-01-28T12:51:44;99208.19;;;2.96;96.85
11605;BME280;5858;43.076;25.626;2023-01-28T12:54:16;99133.69;;;2.33;97.00
11605;BME280;5858;43.076;25.626;2023-01-28T12:56:49;99211.53;;;2.89;97.58
11605;BME280;5858;43.076;25.626;2023-01-28T12:59:21;99216.13;;;2.96;97.39
11605;BME280;5858;43.076;25.626;2023-01-28T13:02:00;99149.38;;;2.35;97.47
11605;BME280;5858;43.076;25.626;2023-01-28T13:04:38;99189.34;;;2.61;97.61
11605;BME280;5858;43.076;25.626;2023-01-28T13:07:12;99233.78;;;2.86;98.34
11605;BME280;5858;43.076;25.626;2023-01-28T13:09:46;99227.81;;;3.03;97.31
11605;BME280;5858;43.076;25.626;2023-01-28T13:12:15;99168.94;;;2.72;96.78
11605;BME280;5858;43.076;25.626;2023-01-28T13:14:43;99196.66;;;2.97;96.65
11605;BME280;5858;43.076;25.626;2023-01-28T13:17:25;99242.69;;;2.95;97.96
11605;BME280;5858;43.076;25.626;2023-01-28T13:19:52;99144.88;;;2.56;98.07
11605;BME280;5858;43.076;25.626;2023-01-28T13:22:30;99168.38;;;2.78;97.92
11605;BME280;5858;43.076;25.626;2023-01-28T13:25:12;99197.19;;;2.91;97.20
11605;BME280;5858;43.076;25.626;2023-01-28T13:27:54;99173.09;;;2.75;96.85
11605;BME280;5858;43.076;25.626;2023-01-28T13:30:25;99180.88;;;2.67;98.25
11605;BME280;5858;43.076;25.626;2023-01-28T13:32:59;99210.66;;;2.78;98.42
11605;BME280;5858;43.076;25.626;2023-01-28T13:35:32;99164.16;;;2.47;98.23
11605;BME280;5858;43.076;25.626;2023-01-28T13:38:06;99246.03;;;2.97;98.59